Search for airport 
image banner adimage banner adimage banner ad
image banner ad

SNJO - Aeroclube Airport

Located in João Pessoa, Brazil

ICAO - SNJO, IATA -

Data provided by Airmate  

General information

Coordinates: S7°5'30" W34°50'31"
Elevation is 19 feet MSL.
Magnetic variation is -21° East
View others Airports in Paraíba

Operational data

Special qualification required
Current time UTC:
Current local time:
Weather at : SBJP - Presidente Castro Pinto ( 14 km )
METAR: SBJP 090100Z 10003KT 9999 FEW020 25/24 Q1013
TAF: TAF SBJP 082100Z 0900/0924 09010KT 9999 SCT030 TN26/0908Z TX31/0915Z BECMG 0904/0906 16005KT SCT018 BECMG 0910/0912 10010KT BKN017 RMK PGU
View NOTAMs / SUP AIP / TFR affecting this airport [VIEW]
Communications frequencies: [VIEW]

Runways:

Airport contact information

Address: João Pessoa Brazil

Other aviation service providers

Aviation club (not for profit)

Joao Pessoa Aeroclub

Joao Pessoa Aeroclub

Satellite view of SNJO